Los Angeles, California
Traffic Map
Current Weather Conditions
Los Angeles, California
Clear
Clear
83°
Feels Like: 84°
Wind Chill: 83° Ceiling: Unl
Heat Index: 84° Visibility: 10mi
Dew Point: 63° Wind: 6mph
Humidity: 51% Direction: ° ()
Pressure: 30.03in Gusts: 0mph
Raw Report DataKCQT 221847Z AUTO VRB05KT 10SM CLR 28/17 A3003 RMK AO2 SLP168 T02830172
Traffic Incident Summary
Active as of:
Severity:
Category:
InformationThere was an issue retrieving the traffic information for this location. Please try a different location or try again shortly.
Advertisements
Track Severe Weather on mobile